Aérodrome :
LOGIN :

S'inscrire | Disclaimer

   EN    FR    IT 

 










Légende :    VFR   VFR Marginal   IFR   IFR Intensif   IFR Très Intensif
Visi : 
Plafond : 
>= 8 km
>= 3000ft
5 à 8 km
1000 à 3000 ft
1500m à 5 km
500 à 1000 ft
800 à 1500m
200 à 500 ft
< 800m
< 200 ft
Symboles :   Orages  Brouillard  Fortes neiges  Fortes précipitations  Vent > 20 kt
SIGMETs :   Divers  Orages  Givrage  Turbulence  Onde Orograph.  Cendres Volcan.






- Altitude de l'aérodrome : 1470 ft


LSMD - Dubendorf Military

DERNIER METAR :
  • 280750Z AUTO 05004KT 340V110 9999NDV R11/2000N R29/1400N SCT029 SCT037 BKN068 16/08 Q1021 RMK

METARs EXPIRÉS :
  • 280720Z AUTO 35003KT 290V050 9999NDV FEW026 SCT067 16/09 Q1021 RMK
  • 280650Z AUTO 35003KT 300V060 9999NDV FEW026 BKN068 15/09 Q1021 RMK
  • 280550Z AUTO 34003KT 300V020 9999NDV FEW032 OVC058 14/09 Q1021 RMK

Prévision TAF périmée.



MET'MAP, la Météo Aéronautique d'un coup d'oeil ! - Copyright ORBIFLY Décembre 2007 - Disclaimer

ORBIFLY MET'MAP TEAM :

Programmation & Développement : Alexandra Zaïnal
Sur une idée originale de : Baudouin d'Aumeries
Soutien technique & logistique : Manuel Goepfert
Assistance : Marc-Olivier Méhu

Contact : metmap@orbifly.com




SOURCES & CREDITS :

   NOAA